Time,TemperatureF,DewpointF,PressureIn,WindDirection,WindDirectionDegrees,WindSpeedMPH,WindSpeedGustMPH,Humidity,HourlyPrecipIn,Conditions,Clouds,dailyrainin,SoftwareType,DateUTC
2013-12-14 00:00:00,29.0,21.7,30.13,North,351,4.0,4.0,74,0.00,,,0.00,Wunderground v.1.13,2013-12-14 07:00:00,
2013-12-14 00:05:00,29.0,21.7,30.13,NNW,346,2.0,14.0,74,0.00,,,0.00,Wunderground v.1.13,2013-12-14 07:05:00,
2013-12-14 00:09:00,29.0,22.1,30.13,North,360,2.0,2.0,75,0.00,,,0.00,Wunderground v.1.13,2013-12-14 07:09:00,
2013-12-14 00:14:00,29.1,22.2,30.13,NNW,336,2.0,2.0,75,0.00,,,0.00,Wunderground v.1.13,2013-12-14 07:14:00,
2013-12-14 00:19:00,29.1,22.2,30.13,NNW,338,1.0,14.0,75,0.00,,,0.00,Wunderground v.1.13,2013-12-14 07:19:00,
2013-12-14 00:24:00,29.1,22.2,30.13,NNW,335,3.0,3.0,75,0.00,,,0.00,Wunderground v.1.13,2013-12-14 07:24:00,
2013-12-14 00:29:00,29.1,22.2,30.13,NNW,338,4.0,4.0,75,0.00,,,0.00,Wunderground v.1.13,2013-12-14 07:29:00,
2013-12-14 00:34:00,29.1,22.5,30.13,North,351,3.0,14.0,76,0.00,,,0.00,Wunderground v.1.13,2013-12-14 07:34:00,
2013-12-14 00:39:00,29.0,22.4,30.13,NNW,330,4.0,4.0,76,0.00,,,0.00,Wunderground v.1.13,2013-12-14 07:39:00,
2013-12-14 00:44:00,28.7,22.1,30.13,NNW,335,5.0,5.0,76,0.00,,,0.00,Wunderground v.1.13,2013-12-14 07:44:00,
2013-12-14 00:50:00,28.5,21.9,30.13,NNW,344,4.0,4.0,76,0.00,,,0.00,Wunderground v.1.13,2013-12-14 07:50:00,
2013-12-14 00:55:00,28.4,21.8,30.13,NNW,335,4.0,4.0,76,0.00,,,0.00,Wunderground v.1.13,2013-12-14 07:55:00,
2013-12-14 01:00:00,28.2,21.9,30.13,NW,315,4.0,14.0,77,0.00,,,0.00,Wunderground v.1.13,2013-12-14 08:00:00,
2013-12-14 01:05:00,27.9,21.6,30.13,NW,317,4.0,4.0,77,0.00,,,0.00,Wunderground v.1.13,2013-12-14 08:05:00,
2013-12-14 01:10:00,27.8,21.5,30.13,NNW,331,4.0,4.0,77,0.00,,,0.00,Wunderground v.1.13,2013-12-14 08:10:00,
2013-12-14 01:14:00,27.6,21.3,30.13,NW,316,2.0,2.0,77,0.00,,,0.00,Wunderground v.1.13,2013-12-14 08:14:00,
2013-12-14 01:19:00,27.5,21.2,30.13,NNW,336,2.0,2.0,77,0.00,,,0.00,Wunderground v.1.13,2013-12-14 08:19:00,
2013-12-14 01:24:00,27.3,21.3,30.13,NW,321,2.0,2.0,78,0.00,,,0.00,Wunderground v.1.13,2013-12-14 08:24:00,
2013-12-14 01:29:00,27.0,21.1,30.13,NNW,340,1.0,1.0,78,0.00,,,0.00,Wunderground v.1.13,2013-12-14 08:29:00,
2013-12-14 01:34:00,26.9,21.0,30.13,NNW,340,0.0,14.0,78,0.00,,,0.00,Wunderground v.1.13,2013-12-14 08:34:00,
2013-12-14 01:39:00,26.6,20.7,30.13,NW,323,0.0,14.0,78,0.00,,,0.00,Wunderground v.1.13,2013-12-14 08:39:00,
2013-12-14 01:44:00,26.1,20.5,30.13,NNW,347,0.0,14.0,79,0.00,,,0.00,Wunderground v.1.13,2013-12-14 08:44:00,
2013-12-14 01:50:00,25.6,20.0,30.13,NNW,337,0.0,14.0,79,0.00,,,0.00,Wunderground v.1.13,2013-12-14 08:50:00,
2013-12-14 01:55:00,25.3,20.0,30.13,NNW,348,0.0,14.0,80,0.00,,,0.00,Wunderground v.1.13,2013-12-14 08:55:00,
2013-12-14 02:00:00,25.3,20.0,30.13,NNW,342,0.0,14.0,80,0.00,,,0.00,Wunderground v.1.13,2013-12-14 09:00:00,
2013-12-14 02:05:00,25.7,20.7,30.14,NW,311,0.0,14.0,81,0.00,,,0.00,Wunderground v.1.13,2013-12-14 09:05:00,
2013-12-14 02:09:00,25.8,20.5,30.14,NW,319,0.0,14.0,80,0.00,,,0.00,Wunderground v.1.13,2013-12-14 09:09:00,
2013-12-14 02:14:00,25.7,20.4,30.14,NNW,335,0.0,14.0,80,0.00,,,0.00,Wunderground v.1.13,2013-12-14 09:14:00,
2013-12-14 02:20:00,25.6,20.6,30.14,NNW,333,0.0,14.0,81,0.00,,,0.00,Wunderground v.1.13,2013-12-14 09:20:00,
2013-12-14 02:25:00,25.6,20.6,30.14,NW,321,0.0,14.0,81,0.00,,,0.00,Wunderground v.1.13,2013-12-14 09:25:00,
2013-12-14 02:30:00,25.4,20.4,30.14,NW,323,0.0,14.0,81,0.00,,,0.00,Wunderground v.1.13,2013-12-14 09:30:00,
2013-12-14 02:35:00,25.6,20.9,30.14,NW,322,0.0,14.0,82,0.00,,,0.00,Wunderground v.1.13,2013-12-14 09:35:00,
2013-12-14 02:40:00,25.6,20.9,30.14,NNW,327,0.0,14.0,82,0.00,,,0.00,Wunderground v.1.13,2013-12-14 09:40:00,
2013-12-14 02:44:00,25.7,21.3,30.14,North,351,1.0,1.0,83,0.00,,,0.00,Wunderground v.1.13,2013-12-14 09:44:00,
2013-12-14 02:50:00,25.7,21.3,30.15,NW,317,2.0,14.0,83,0.00,,,0.00,Wunderground v.1.13,2013-12-14 09:50:00,
2013-12-14 02:55:00,25.6,21.2,30.15,NW,308,1.0,1.0,83,0.00,,,0.00,Wunderground v.1.13,2013-12-14 09:55:00,
2013-12-14 03:00:00,25.4,21.0,30.15,NNW,333,1.0,1.0,83,0.00,,,0.00,Wunderground v.1.13,2013-12-14 10:00:00,
2013-12-14 03:05:00,25.6,21.2,30.15,NNW,338,2.0,14.0,83,0.00,,,0.00,Wunderground v.1.13,2013-12-14 10:05:00,
2013-12-14 03:10:00,25.8,21.6,30.15,NNW,331,3.0,14.0,84,0.00,,,0.00,Wunderground v.1.13,2013-12-14 10:10:00,
2013-12-14 03:15:00,26.0,21.8,30.15,NNW,338,4.0,4.0,84,0.00,,,0.00,Wunderground v.1.13,2013-12-14 10:15:00,
2013-12-14 03:20:00,26.0,21.8,30.15,NW,323,2.0,2.0,84,0.00,,,0.00,Wunderground v.1.13,2013-12-14 10:20:00,
2013-12-14 03:25:00,25.8,21.6,30.15,NNW,327,0.0,14.0,84,0.00,,,0.00,Wunderground v.1.13,2013-12-14 10:25:00,
2013-12-14 03:30:00,25.7,21.5,30.15,NNW,327,0.0,14.0,84,0.00,,,0.00,Wunderground v.1.13,2013-12-14 10:30:00,
2013-12-14 03:35:00,25.3,21.1,30.15,NNW,327,0.0,14.0,84,0.00,,,0.00,Wunderground v.1.13,2013-12-14 10:35:00,
2013-12-14 03:40:00,25.0,20.8,30.15,NNW,327,0.0,14.0,84,0.00,,,0.00,Wunderground v.1.13,2013-12-14 10:40:00,
2013-12-14 03:45:00,24.4,20.3,30.15,NNW,327,0.0,14.0,84,0.00,,,0.00,Wunderground v.1.13,2013-12-14 10:45:00,
2013-12-14 03:50:00,24.2,20.3,30.15,NNW,327,0.0,14.0,85,0.00,,,0.00,Wunderground v.1.13,2013-12-14 10:50:00,
2013-12-14 03:59:00,24.1,20.2,30.15,NNW,327,0.0,14.0,85,0.00,,,0.00,Wunderground v.1.13,2013-12-14 10:59:00,
2013-12-14 04:04:00,23.9,20.0,30.14,NNW,327,0.0,14.0,85,0.00,,,0.00,Wunderground v.1.13,2013-12-14 11:04:00,
2013-12-14 04:09:00,23.9,20.0,30.14,NNW,327,0.0,14.0,85,0.00,,,0.00,Wunderground v.1.13,2013-12-14 11:09:00,
2013-12-14 04:14:00,23.9,20.3,30.14,NNW,327,0.0,14.0,86,0.00,,,0.00,Wunderground v.1.13,2013-12-14 11:14:00,
2013-12-14 04:19:00,23.9,20.3,30.14,NNW,327,0.0,14.0,86,0.00,,,0.00,Wunderground v.1.13,2013-12-14 11:19:00,
2013-12-14 04:24:00,23.9,20.3,30.14,NNW,327,0.0,14.0,86,0.00,,,0.00,Wunderground v.1.13,2013-12-14 11:24:00,
2013-12-14 04:29:00,23.9,20.3,30.14,NNW,327,0.0,14.0,86,0.00,,,0.00,Wunderground v.1.13,2013-12-14 11:29:00,
2013-12-14 04:34:00,23.9,20.3,30.14,NNW,327,0.0,14.0,86,0.00,,,0.00,Wunderground v.1.13,2013-12-14 11:34:00,
2013-12-14 04:39:00,23.9,20.3,30.14,NNW,327,0.0,14.0,86,0.00,,,0.00,Wunderground v.1.13,2013-12-14 11:39:00,
2013-12-14 04:45:00,23.9,20.3,30.14,NNW,327,0.0,14.0,86,0.00,,,0.00,Wunderground v.1.13,2013-12-14 11:45:00,
2013-12-14 04:50:00,24.1,20.5,30.14,NNW,327,0.0,14.0,86,0.00,,,0.00,Wunderground v.1.13,2013-12-14 11:50:00,
2013-12-14 04:55:00,24.2,20.6,30.14,NNW,327,0.0,14.0,86,0.00,,,0.00,Wunderground v.1.13,2013-12-14 11:55:00,
2013-12-14 04:59:00,24.4,21.1,30.14,NNW,327,0.0,14.0,87,0.00,,,0.00,Wunderground v.1.13,2013-12-14 11:59:00,
2013-12-14 05:04:00,24.5,20.9,30.14,NNW,327,0.0,14.0,86,0.00,,,0.00,Wunderground v.1.13,2013-12-14 12:04:00,
2013-12-14 05:09:00,24.4,20.8,30.14,NNW,327,0.0,14.0,86,0.00,,,0.00,Wunderground v.1.13,2013-12-14 12:09:00,
2013-12-14 05:15:00,24.2,20.6,30.14,NNW,327,0.0,14.0,86,0.00,,,0.00,Wunderground v.1.13,2013-12-14 12:15:00,
2013-12-14 05:20:00,24.1,20.5,30.14,NNW,327,0.0,14.0,86,0.00,,,0.00,Wunderground v.1.13,2013-12-14 12:20:00,
2013-12-14 05:25:00,23.9,20.3,30.14,NNW,327,0.0,14.0,86,0.00,,,0.00,Wunderground v.1.13,2013-12-14 12:25:00,
2013-12-14 05:30:00,23.6,20.0,30.15,NNW,327,0.0,14.0,86,0.00,,,0.00,Wunderground v.1.13,2013-12-14 12:30:00,
2013-12-14 05:35:00,23.3,19.7,30.15,NNW,327,0.0,14.0,86,0.00,,,0.00,Wunderground v.1.13,2013-12-14 12:35:00,
2013-12-14 05:40:00,23.0,19.4,30.15,NNW,327,0.0,14.0,86,0.00,,,0.00,Wunderground v.1.13,2013-12-14 12:40:00,
2013-12-14 05:45:00,22.7,19.1,30.15,NNW,327,0.0,14.0,86,0.00,,,0.00,Wunderground v.1.13,2013-12-14 12:45:00,
2013-12-14 05:49:00,22.7,19.7,30.15,NNW,327,0.0,14.0,88,0.00,,,0.00,Wunderground v.1.13,2013-12-14 12:49:00,
2013-12-14 05:54:00,23.2,19.9,30.15,NNW,327,0.0,14.0,87,0.00,,,0.00,Wunderground v.1.13,2013-12-14 12:54:00,
2013-12-14 05:59:00,23.3,20.3,30.15,NNW,327,0.0,14.0,88,0.00,,,0.00,Wunderground v.1.13,2013-12-14 12:59:00,
2013-12-14 06:04:00,23.6,20.6,30.15,NNW,327,0.0,14.0,88,0.00,,,0.00,Wunderground v.1.13,2013-12-14 13:04:00,
2013-12-14 06:09:00,23.9,20.9,30.15,NNW,327,0.0,14.0,88,0.00,,,0.00,Wunderground v.1.13,2013-12-14 13:09:00,
2013-12-14 06:14:00,24.7,21.9,30.15,NNW,327,0.0,14.0,89,0.00,,,0.00,Wunderground v.1.13,2013-12-14 13:14:00,
2013-12-14 06:20:00,25.3,22.2,30.15,NNW,327,0.0,14.0,88,0.00,,,0.00,Wunderground v.1.13,2013-12-14 13:20:00,
2013-12-14 06:25:00,25.8,23.0,30.15,NNW,327,0.0,14.0,89,0.00,,,0.00,Wunderground v.1.13,2013-12-14 13:25:00,
2013-12-14 06:30:00,26.9,24.1,30.15,WNW,292,0.0,14.0,89,0.00,,,0.00,Wunderground v.1.13,2013-12-14 13:30:00,
2013-12-14 06:35:00,28.1,24.7,30.15,WNW,291,0.0,14.0,87,0.00,,,0.00,Wunderground v.1.13,2013-12-14 13:35:00,
2013-12-14 06:39:00,28.8,25.1,30.15,NW,307,0.0,14.0,86,0.00,,,0.00,Wunderground v.1.13,2013-12-14 13:39:00,
2013-12-14 06:44:00,28.8,24.9,30.15,NW,307,0.0,14.0,85,0.00,,,0.00,Wunderground v.1.13,2013-12-14 13:44:00,
2013-12-14 06:49:00,29.0,24.8,30.16,NW,307,0.0,14.0,84,0.00,,,0.00,Wunderground v.1.13,2013-12-14 13:49:00,
2013-12-14 06:54:00,28.7,24.5,30.16,NW,307,0.0,14.0,84,0.00,,,0.00,Wunderground v.1.13,2013-12-14 13:54:00,
2013-12-14 07:00:00,28.5,24.3,30.17,NW,307,0.0,14.0,84,0.00,,,0.00,Wunderground v.1.13,2013-12-14 14:00:00,
2013-12-14 07:05:00,28.5,24.0,30.17,NW,311,0.0,14.0,83,0.00,,,0.00,Wunderground v.1.13,2013-12-14 14:05:00,
2013-12-14 07:10:00,28.7,24.2,30.17,NW,311,0.0,14.0,83,0.00,,,0.00,Wunderground v.1.13,2013-12-14 14:10:00,
2013-12-14 07:20:00,29.7,24.9,30.17,WNW,288,0.0,14.0,82,0.00,,,0.00,Wunderground v.1.13,2013-12-14 14:20:00,
2013-12-14 07:25:00,30.3,25.2,30.17,NW,307,0.0,14.0,81,0.00,,,0.00,Wunderground v.1.13,2013-12-14 14:25:00,
2013-12-14 07:30:00,30.7,25.3,30.17,WNW,300,0.0,14.0,80,0.00,,,0.00,Wunderground v.1.13,2013-12-14 14:30:00,
2013-12-14 07:35:00,31.2,25.1,30.17,WNW,302,0.0,14.0,78,0.00,,,0.00,Wunderground v.1.13,2013-12-14 14:35:00,
2013-12-14 07:39:00,31.5,25.1,30.17,WNW,288,0.0,14.0,77,0.00,,,0.00,Wunderground v.1.13,2013-12-14 14:39:00,
2013-12-14 07:44:00,31.6,25.2,30.17,WNW,283,0.0,14.0,77,0.00,,,0.00,Wunderground v.1.13,2013-12-14 14:44:00,
2013-12-14 07:50:00,31.6,24.9,30.17,WNW,284,0.0,14.0,76,0.00,,,0.00,Wunderground v.1.13,2013-12-14 14:50:00,
2013-12-14 07:55:00,31.8,25.1,30.17,WNW,285,0.0,14.0,76,0.00,,,0.00,Wunderground v.1.13,2013-12-14 14:55:00,
2013-12-14 08:00:00,31.8,25.1,30.17,WNW,285,0.0,14.0,76,0.00,,,0.00,Wunderground v.1.13,2013-12-14 15:00:00,
2013-12-14 08:05:00,30.6,23.6,30.17,WNW,285,0.0,14.0,75,0.00,,,0.00,Wunderground v.1.13,2013-12-14 15:05:00,
2013-12-14 08:10:00,30.0,23.4,30.17,WNW,285,0.0,14.0,76,0.00,,,0.00,Wunderground v.1.13,2013-12-14 15:10:00,
2013-12-14 08:15:00,30.0,23.4,30.17,WNW,285,0.0,14.0,76,0.00,,,0.00,Wunderground v.1.13,2013-12-14 15:15:00,
2013-12-14 08:19:00,29.7,23.1,30.18,WNW,285,0.0,14.0,76,0.00,,,0.00,Wunderground v.1.13,2013-12-14 15:19:00,
2013-12-14 08:24:00,29.4,22.8,30.18,WNW,284,0.0,14.0,76,0.00,,,0.00,Wunderground v.1.13,2013-12-14 15:24:00,
2013-12-14 08:30:00,29.3,22.7,30.18,WNW,283,0.0,14.0,76,0.00,,,0.00,Wunderground v.1.13,2013-12-14 15:30:00,
2013-12-14 08:34:00,29.4,23.1,30.18,West,279,0.0,14.0,77,0.00,,,0.00,Wunderground v.1.13,2013-12-14 15:34:00,
2013-12-14 08:39:00,30.4,24.7,30.18,WNW,298,0.0,14.0,79,0.00,,,0.00,Wunderground v.1.13,2013-12-14 15:39:00,
2013-12-14 08:44:00,32.2,25.8,30.18,NW,311,2.0,2.0,77,0.00,,,0.00,Wunderground v.1.13,2013-12-14 15:44:00,
2013-12-14 08:49:00,33.7,26.3,30.18,WNW,292,3.0,14.0,74,0.00,,,0.00,Wunderground v.1.13,2013-12-14 15:49:00,
2013-12-14 08:55:00,34.7,26.3,30.18,NW,315,2.0,14.0,71,0.00,,,0.00,Wunderground v.1.13,2013-12-14 15:55:00,
2013-12-14 09:00:00,35.5,26.7,30.18,NNW,329,4.0,4.0,70,0.00,,,0.00,Wunderground v.1.13,2013-12-14 16:00:00,
2013-12-14 09:05:00,35.9,26.4,30.18,NW,319,4.0,14.0,68,0.00,,,0.00,Wunderground v.1.13,2013-12-14 16:05:00,
2013-12-14 09:10:00,36.3,26.0,30.18,NNW,329,5.0,14.0,66,0.00,,,0.00,Wunderground v.1.13,2013-12-14 16:10:00,
2013-12-14 09:15:00,36.8,26.5,30.18,West,281,7.0,14.0,66,0.00,,,0.00,Wunderground v.1.13,2013-12-14 16:15:00,
2013-12-14 09:25:00,37.3,25.8,30.18,WNW,303,8.0,8.0,63,0.00,,,0.00,Wunderground v.1.13,2013-12-14 16:25:00,
2013-12-14 09:30:00,37.6,25.7,30.18,WNW,291,9.0,14.0,62,0.00,,,0.00,Wunderground v.1.13,2013-12-14 16:30:00,
2013-12-14 09:34:00,37.8,25.9,30.19,WNW,294,9.0,16.0,62,0.00,,,0.00,Wunderground v.1.13,2013-12-14 16:34:00,
2013-12-14 09:39:00,37.8,25.9,30.19,WNW,294,9.0,14.0,62,0.00,,,0.00,Wunderground v.1.13,2013-12-14 16:39:00,
2013-12-14 09:44:00,37.9,25.6,30.19,North,360,9.0,9.0,61,0.00,,,0.00,Wunderground v.1.13,2013-12-14 16:44:00,
2013-12-14 09:49:00,38.2,25.9,30.19,NW,318,8.0,8.0,61,0.00,,,0.00,Wunderground v.1.13,2013-12-14 16:49:00,
2013-12-14 09:54:00,38.3,26.0,30.19,NW,309,5.0,5.0,61,0.00,,,0.00,Wunderground v.1.13,2013-12-14 16:54:00,
2013-12-14 09:59:00,38.6,25.9,30.19,NW,304,4.0,14.0,60,0.00,,,0.00,Wunderground v.1.13,2013-12-14 16:59:00,
2013-12-14 10:04:00,38.8,26.1,30.19,WNW,283,5.0,14.0,60,0.00,,,0.00,Wunderground v.1.13,2013-12-14 17:04:00,
2013-12-14 10:10:00,38.8,26.1,30.19,WNW,292,7.0,7.0,60,0.00,,,0.00,Wunderground v.1.13,2013-12-14 17:10:00,
2013-12-14 10:15:00,39.2,26.1,30.18,NW,320,7.0,14.0,59,0.00,,,0.00,Wunderground v.1.13,2013-12-14 17:15:00,
2013-12-14 10:20:00,39.6,26.0,30.18,NNW,344,7.0,15.0,58,0.00,,,0.00,Wunderground v.1.13,2013-12-14 17:20:00,
2013-12-14 10:25:00,40.1,26.1,30.18,NW,315,7.0,7.0,57,0.00,,,0.00,Wunderground v.1.13,2013-12-14 17:25:00,
2013-12-14 10:30:00,40.5,26.4,30.18,NW,311,7.0,7.0,57,0.00,,,0.00,Wunderground v.1.13,2013-12-14 17:30:00,
2013-12-14 10:35:00,40.9,26.4,30.18,NW,325,7.0,7.0,56,0.00,,,0.00,Wunderground v.1.13,2013-12-14 17:35:00,
2013-12-14 10:40:00,41.3,25.9,30.18,NNW,331,5.0,5.0,54,0.00,,,0.00,Wunderground v.1.13,2013-12-14 17:40:00,
2013-12-14 10:45:00,41.8,25.4,30.18,NW,306,7.0,14.0,52,0.00,,,0.00,Wunderground v.1.13,2013-12-14 17:45:00,
2013-12-14 10:50:00,42.3,25.4,30.17,NNW,348,8.0,8.0,51,0.00,,,0.00,Wunderground v.1.13,2013-12-14 17:50:00,
2013-12-14 10:55:00,42.5,25.1,30.17,NNW,344,9.0,15.0,50,0.00,,,0.00,Wunderground v.1.13,2013-12-14 17:55:00,
2013-12-14 11:00:00,42.6,24.8,30.17,North,360,12.0,15.0,49,0.00,,,0.00,Wunderground v.1.13,2013-12-14 18:00:00,
2013-12-14 11:05:00,42.8,24.4,30.17,NW,321,12.0,12.0,48,0.00,,,0.00,Wunderground v.1.13,2013-12-14 18:05:00,
2013-12-14 11:09:00,42.8,23.9,30.17,North,360,13.0,13.0,47,0.00,,,0.00,Wunderground v.1.13,2013-12-14 18:09:00,
2013-12-14 11:14:00,42.9,24.0,30.17,NNW,348,13.0,13.0,47,0.00,,,0.00,Wunderground v.1.13,2013-12-14 18:14:00,
2013-12-14 11:19:00,43.3,24.4,30.16,NW,319,10.0,10.0,47,0.00,,,0.00,Wunderground v.1.13,2013-12-14 18:19:00,
2013-12-14 11:24:00,43.8,24.3,30.16,North,5,7.0,16.0,46,0.00,,,0.00,Wunderground v.1.13,2013-12-14 18:24:00,
2013-12-14 11:30:00,43.6,24.2,30.16,NNW,329,8.0,14.0,46,0.00,,,0.00,Wunderground v.1.13,2013-12-14 18:30:00,
2013-12-14 11:35:00,43.8,23.8,30.15,North,360,9.0,9.0,45,0.00,,,0.00,Wunderground v.1.13,2013-12-14 18:35:00,
2013-12-14 11:40:00,44.1,23.6,30.15,NW,315,9.0,14.0,44,0.00,,,0.00,Wunderground v.1.13,2013-12-14 18:40:00,
2013-12-14 11:44:00,44.1,23.6,30.15,NNW,345,10.0,10.0,44,0.00,,,0.00,Wunderground v.1.13,2013-12-14 18:44:00,
2013-12-14 11:49:00,44.2,22.5,30.15,NW,323,10.0,10.0,42,0.00,,,0.00,Wunderground v.1.13,2013-12-14 18:49:00,
2013-12-14 11:54:00,44.2,22.5,30.15,NW,314,10.0,14.0,42,0.00,,,0.00,Wunderground v.1.13,2013-12-14 18:54:00,
2013-12-14 11:59:00,44.6,22.9,30.15,NW,319,10.0,14.0,42,0.00,,,0.00,Wunderground v.1.13,2013-12-14 18:59:00,
2013-12-14 12:04:00,44.8,22.5,30.14,NNW,341,10.0,14.0,41,0.00,,,0.00,Wunderground v.1.13,2013-12-14 19:04:00,
2013-12-14 12:09:00,45.1,22.8,30.14,North,351,10.0,14.0,41,0.00,,,0.00,Wunderground v.1.13,2013-12-14 19:09:00,
2013-12-14 12:14:00,45.1,22.2,30.14,NNW,331,10.0,10.0,40,0.00,,,0.00,Wunderground v.1.13,2013-12-14 19:14:00,
2013-12-14 12:20:00,45.2,22.3,30.13,NW,320,11.0,11.0,40,0.00,,,0.00,Wunderground v.1.13,2013-12-14 19:20:00,
2013-12-14 12:30:00,45.5,21.9,30.13,North,349,11.0,14.0,39,0.00,,,0.00,Wunderground v.1.13,2013-12-14 19:30:00,
2013-12-14 12:35:00,45.7,22.1,30.13,NNW,340,10.0,14.0,39,0.00,,,0.00,Wunderground v.1.13,2013-12-14 19:35:00,
2013-12-14 12:39:00,45.8,22.2,30.13,NNW,340,10.0,10.0,39,0.00,,,0.00,Wunderground v.1.13,2013-12-14 19:39:00,
2013-12-14 12:44:00,46.1,21.9,30.13,North,350,9.0,14.0,38,0.00,,,0.00,Wunderground v.1.13,2013-12-14 19:44:00,
2013-12-14 12:49:00,46.2,22.0,30.13,North,5,7.0,7.0,38,0.00,,,0.00,Wunderground v.1.13,2013-12-14 19:49:00,
2013-12-14 12:54:00,46.1,21.9,30.13,North,351,8.0,14.0,38,0.00,,,0.00,Wunderground v.1.13,2013-12-14 19:54:00,
2013-12-14 12:59:00,46.1,21.9,30.13,NNW,341,10.0,14.0,38,0.00,,,0.00,Wunderground v.1.13,2013-12-14 19:59:00,
2013-12-14 13:04:00,46.0,21.8,30.13,NW,324,10.0,14.0,38,0.00,,,0.00,Wunderground v.1.13,2013-12-14 20:04:00,
2013-12-14 13:09:00,46.1,21.9,30.13,NW,321,10.0,14.0,38,0.00,,,0.00,Wunderground v.1.13,2013-12-14 20:09:00,
2013-12-14 13:14:00,46.0,21.8,30.13,NW,313,10.0,14.0,38,0.00,,,0.00,Wunderground v.1.13,2013-12-14 20:14:00,
2013-12-14 13:20:00,45.5,21.9,30.13,NNW,333,11.0,15.0,39,0.00,,,0.00,Wunderground v.1.13,2013-12-14 20:20:00,
2013-12-14 13:25:00,45.5,21.9,30.13,NNW,343,10.0,14.0,39,0.00,,,0.00,Wunderground v.1.13,2013-12-14 20:25:00,
2013-12-14 13:29:00,45.7,21.5,30.13,NNW,347,11.0,14.0,38,0.00,,,0.00,Wunderground v.1.13,2013-12-14 20:29:00,
2013-12-14 13:35:00,46.1,21.9,30.12,NNW,331,12.0,12.0,38,0.00,,,0.00,Wunderground v.1.13,2013-12-14 20:35:00,
2013-12-14 13:40:00,46.1,21.9,30.12,North,360,11.0,11.0,38,0.00,,,0.00,Wunderground v.1.13,2013-12-14 20:40:00,
2013-12-14 13:45:00,46.2,22.0,30.12,NNW,331,9.0,14.0,38,0.00,,,0.00,Wunderground v.1.13,2013-12-14 20:45:00,
2013-12-14 13:50:00,46.4,22.1,30.12,NW,311,8.0,8.0,38,0.00,,,0.00,Wunderground v.1.13,2013-12-14 20:50:00,
2013-12-14 13:55:00,46.2,22.0,30.12,NNW,331,9.0,16.0,38,0.00,,,0.00,Wunderground v.1.13,2013-12-14 20:55:00,
2013-12-14 14:00:00,46.1,21.2,30.12,NW,311,10.0,18.0,37,0.00,,,0.00,Wunderground v.1.13,2013-12-14 21:00:00,
2013-12-14 14:05:00,46.2,21.3,30.12,NNW,333,10.0,15.0,37,0.00,,,0.00,Wunderground v.1.13,2013-12-14 21:05:00,
2013-12-14 14:10:00,46.2,21.3,30.12,NW,326,11.0,11.0,37,0.00,,,0.00,Wunderground v.1.13,2013-12-14 21:10:00,
2013-12-14 14:19:00,46.5,22.2,30.12,NNW,338,7.0,14.0,38,0.00,,,0.00,Wunderground v.1.13,2013-12-14 21:19:00,
2013-12-14 14:29:00,46.7,21.8,30.12,NW,304,5.0,5.0,37,0.00,,,0.00,Wunderground v.1.13,2013-12-14 21:29:00,
2013-12-14 14:34:00,46.8,22.5,30.11,NNW,341,4.0,4.0,38,0.00,,,0.00,Wunderground v.1.13,2013-12-14 21:34:00,
2013-12-14 14:40:00,46.7,22.4,30.11,NW,325,6.0,14.0,38,0.00,,,0.00,Wunderground v.1.13,2013-12-14 21:40:00,
2013-12-14 14:45:00,46.4,21.5,30.11,NW,317,6.0,14.0,37,0.00,,,0.00,Wunderground v.1.13,2013-12-14 21:45:00,
2013-12-14 14:54:00,46.4,22.1,30.11,NW,311,3.0,3.0,38,0.00,,,0.00,Wunderground v.1.13,2013-12-14 21:54:00,
2013-12-14 14:59:00,46.4,22.1,30.11,NW,315,1.0,14.0,38,0.00,,,0.00,Wunderground v.1.13,2013-12-14 21:59:00,
2013-12-14 15:05:00,46.2,22.0,30.11,NW,315,2.0,2.0,38,0.00,,,0.00,Wunderground v.1.13,2013-12-14 22:05:00,
2013-12-14 15:10:00,46.0,21.8,30.11,NW,317,3.0,3.0,38,0.00,,,0.00,Wunderground v.1.13,2013-12-14 22:10:00,
2013-12-14 15:15:00,45.8,22.2,30.11,NW,313,4.0,4.0,39,0.00,,,0.00,Wunderground v.1.13,2013-12-14 22:15:00,
2013-12-14 15:20:00,45.4,21.9,30.12,NW,323,3.0,3.0,39,0.00,,,0.00,Wunderground v.1.13,2013-12-14 22:20:00,
2013-12-14 15:29:00,44.6,21.7,30.12,WNW,284,1.0,1.0,40,0.00,,,0.00,Wunderground v.1.13,2013-12-14 22:29:00,
2013-12-14 15:35:00,44.5,22.2,30.12,WNW,288,0.0,14.0,41,0.00,,,0.00,Wunderground v.1.13,2013-12-14 22:35:00,
2013-12-14 15:40:00,44.2,22.0,30.12,WNW,299,0.0,14.0,41,0.00,,,0.00,Wunderground v.1.13,2013-12-14 22:40:00,
2013-12-14 15:50:00,43.5,21.9,30.11,WNW,290,0.0,14.0,42,0.00,,,0.00,Wunderground v.1.13,2013-12-14 22:50:00,
2013-12-14 15:55:00,43.3,21.7,30.11,WNW,290,0.0,14.0,42,0.00,,,0.00,Wunderground v.1.13,2013-12-14 22:55:00,
2013-12-14 16:00:00,43.1,21.5,30.11,NW,312,0.0,14.0,42,0.00,,,0.00,Wunderground v.1.13,2013-12-14 23:00:00,
2013-12-14 16:05:00,42.6,21.6,30.11,NW,306,0.0,14.0,43,0.00,,,0.00,Wunderground v.1.13,2013-12-14 23:05:00,
2013-12-14 16:10:00,42.1,21.2,30.11,WNW,296,0.0,14.0,43,0.00,,,0.00,Wunderground v.1.13,2013-12-14 23:10:00,
2013-12-14 16:15:00,41.8,21.5,30.11,WNW,302,0.0,14.0,44,0.00,,,0.00,Wunderground v.1.13,2013-12-14 23:15:00,
2013-12-14 16:19:00,41.5,21.2,30.11,WNW,302,0.0,14.0,44,0.00,,,0.00,Wunderground v.1.13,2013-12-14 23:19:00,
2013-12-14 16:24:00,41.1,20.8,30.11,WNW,303,0.0,14.0,44,0.00,,,0.00,Wunderground v.1.13,2013-12-14 23:24:00,
2013-12-14 16:29:00,40.3,20.6,30.11,WNW,303,0.0,14.0,45,0.00,,,0.00,Wunderground v.1.13,2013-12-14 23:29:00,
2013-12-14 16:35:00,39.8,20.7,30.11,WNW,303,0.0,14.0,46,0.00,,,0.00,Wunderground v.1.13,2013-12-14 23:35:00,
2013-12-14 16:40:00,39.3,20.7,30.11,WNW,303,0.0,14.0,47,0.00,,,0.00,Wunderground v.1.13,2013-12-14 23:40:00,
2013-12-14 16:45:00,38.9,20.4,30.11,WNW,303,0.0,14.0,47,0.00,,,0.00,Wunderground v.1.13,2013-12-14 23:45:00,
2013-12-14 16:50:00,38.6,20.1,30.11,NW,308,0.0,14.0,47,0.00,,,0.00,Wunderground v.1.13,2013-12-14 23:50:00,
2013-12-14 16:55:00,38.3,20.3,30.11,NNW,328,0.0,14.0,48,0.00,,,0.00,Wunderground v.1.13,2013-12-14 23:55:00,
2013-12-14 17:00:00,38.0,20.0,30.11,NW,319,0.0,14.0,48,0.00,,,0.00,Wunderground v.1.13,2013-12-15 00:00:00,
2013-12-14 17:04:00,37.9,19.9,30.11,WNW,302,0.0,14.0,48,0.00,,,0.00,Wunderground v.1.13,2013-12-15 00:04:00,
2013-12-14 17:09:00,37.9,19.9,30.11,NW,310,0.0,14.0,48,0.00,,,0.00,Wunderground v.1.13,2013-12-15 00:09:00,
2013-12-14 17:14:00,37.6,19.7,30.11,NW,309,0.0,14.0,48,0.00,,,0.00,Wunderground v.1.13,2013-12-15 00:14:00,
2013-12-14 17:20:00,37.2,19.8,30.11,NW,326,0.0,14.0,49,0.00,,,0.00,Wunderground v.1.13,2013-12-15 00:20:00,
2013-12-14 17:25:00,36.8,19.9,30.11,NW,326,0.0,14.0,50,0.00,,,0.00,Wunderground v.1.13,2013-12-15 00:25:00,
2013-12-14 17:30:00,36.2,19.8,30.11,NW,326,0.0,14.0,51,0.00,,,0.00,Wunderground v.1.13,2013-12-15 00:30:00,
2013-12-14 17:35:00,35.3,19.0,30.10,NW,326,0.0,14.0,51,0.00,,,0.00,Wunderground v.1.13,2013-12-15 00:35:00,
2013-12-14 17:40:00,34.7,19.3,30.10,NW,326,0.0,14.0,53,0.00,,,0.00,Wunderground v.1.13,2013-12-15 00:40:00,
2013-12-14 17:44:00,34.4,19.0,30.10,NW,326,0.0,14.0,53,0.00,,,0.00,Wunderground v.1.13,2013-12-15 00:44:00,
2013-12-14 17:49:00,33.7,18.4,30.10,NW,326,0.0,14.0,53,0.00,,,0.00,Wunderground v.1.13,2013-12-15 00:49:00,
2013-12-14 17:54:00,32.5,18.1,30.10,NW,326,0.0,14.0,55,0.00,,,0.00,Wunderground v.1.13,2013-12-15 00:54:00,
2013-12-14 17:59:00,31.6,17.7,30.10,NW,326,0.0,14.0,56,0.00,,,0.00,Wunderground v.1.13,2013-12-15 00:59:00,
2013-12-14 18:04:00,30.6,17.2,30.10,NW,326,0.0,14.0,57,0.00,,,0.00,Wunderground v.1.13,2013-12-15 01:04:00,
2013-12-14 18:09:00,30.1,17.5,30.10,NW,326,0.0,14.0,59,0.00,,,0.00,Wunderground v.1.13,2013-12-15 01:09:00,
2013-12-14 18:15:00,29.7,17.1,30.10,NW,326,0.0,14.0,59,0.00,,,0.00,Wunderground v.1.13,2013-12-15 01:15:00,
2013-12-14 18:20:00,29.4,17.2,30.10,NW,326,0.0,14.0,60,0.00,,,0.00,Wunderground v.1.13,2013-12-15 01:20:00,
2013-12-14 18:25:00,29.1,16.9,30.10,NW,326,0.0,14.0,60,0.00,,,0.00,Wunderground v.1.13,2013-12-15 01:25:00,
2013-12-14 18:30:00,28.8,16.6,30.10,NW,326,0.0,14.0,60,0.00,,,0.00,Wunderground v.1.13,2013-12-15 01:30:00,
2013-12-14 18:34:00,28.7,16.9,30.10,NW,326,0.0,14.0,61,0.00,,,0.00,Wunderground v.1.13,2013-12-15 01:34:00,
2013-12-14 18:39:00,28.7,17.3,30.10,NW,326,0.0,14.0,62,0.00,,,0.00,Wunderground v.1.13,2013-12-15 01:39:00,
2013-12-14 18:45:00,29.5,18.1,30.11,NW,326,0.0,14.0,62,0.00,,,0.00,Wunderground v.1.13,2013-12-15 01:45:00,
2013-12-14 18:50:00,30.6,18.3,30.11,WSW,251,0.0,14.0,60,0.00,,,0.00,Wunderground v.1.13,2013-12-15 01:50:00,
2013-12-14 18:55:00,31.0,18.3,30.11,West,260,0.0,14.0,59,0.00,,,0.00,Wunderground v.1.13,2013-12-15 01:55:00,
2013-12-14 19:00:00,31.2,18.5,30.11,WSW,242,0.0,14.0,59,0.00,,,0.00,Wunderground v.1.13,2013-12-15 02:00:00,
2013-12-14 19:05:00,31.3,18.6,30.11,WSW,244,0.0,14.0,59,0.00,,,0.00,Wunderground v.1.13,2013-12-15 02:05:00,
2013-12-14 19:10:00,31.2,18.5,30.11,WSW,244,0.0,14.0,59,0.00,,,0.00,Wunderground v.1.13,2013-12-15 02:10:00,
2013-12-14 19:15:00,31.0,18.3,30.11,WSW,241,0.0,14.0,59,0.00,,,0.00,Wunderground v.1.13,2013-12-15 02:15:00,
2013-12-14 19:19:00,30.7,18.1,30.11,WSW,251,0.0,14.0,59,0.00,,,0.00,Wunderground v.1.13,2013-12-15 02:19:00,
2013-12-14 19:24:00,30.7,18.1,30.11,WSW,251,0.0,14.0,59,0.00,,,0.00,Wunderground v.1.13,2013-12-15 02:24:00,
2013-12-14 19:29:00,30.6,18.0,30.11,WSW,251,0.0,14.0,59,0.00,,,0.00,Wunderground v.1.13,2013-12-15 02:29:00,
2013-12-14 19:34:00,30.4,18.2,30.10,WSW,251,0.0,14.0,60,0.00,,,0.00,Wunderground v.1.13,2013-12-15 02:34:00,
2013-12-14 19:40:00,30.4,18.2,30.10,WSW,255,0.0,14.0,60,0.00,,,0.00,Wunderground v.1.13,2013-12-15 02:40:00,
2013-12-14 19:45:00,30.4,18.2,30.11,WSW,250,0.0,14.0,60,0.00,,,0.00,Wunderground v.1.13,2013-12-15 02:45:00,
2013-12-14 19:50:00,30.6,18.3,30.11,West,279,0.0,14.0,60,0.00,,,0.00,Wunderground v.1.13,2013-12-15 02:50:00,
2013-12-14 19:55:00,30.9,18.6,30.11,West,279,0.0,14.0,60,0.00,,,0.00,Wunderground v.1.13,2013-12-15 02:55:00,
2013-12-14 20:00:00,31.2,18.5,30.11,West,281,0.0,14.0,59,0.00,,,0.00,Wunderground v.1.13,2013-12-15 03:00:00,
2013-12-14 20:05:00,31.5,18.4,30.10,WNW,285,0.0,14.0,58,0.00,,,0.00,Wunderground v.1.13,2013-12-15 03:05:00,
2013-12-14 20:10:00,31.6,18.9,30.10,WSW,253,0.0,14.0,59,0.00,,,0.00,Wunderground v.1.13,2013-12-15 03:10:00,
2013-12-14 20:20:00,32.1,19.4,30.10,WSW,246,0.0,14.0,59,0.00,,,0.00,Wunderground v.1.13,2013-12-15 03:20:00,
2013-12-14 20:25:00,32.4,19.3,30.10,WSW,239,2.0,14.0,58,0.00,,,0.00,Wunderground v.1.13,2013-12-15 03:25:00,
2013-12-14 20:30:00,32.5,19.7,30.10,SW,232,3.0,3.0,59,0.00,,,0.00,Wunderground v.1.13,2013-12-15 03:30:00,
2013-12-14 20:35:00,32.7,19.9,30.10,SW,228,3.0,3.0,59,0.00,,,0.00,Wunderground v.1.13,2013-12-15 03:35:00,
2013-12-14 20:40:00,32.8,20.0,30.10,SW,233,3.0,3.0,59,0.00,,,0.00,Wunderground v.1.13,2013-12-15 03:40:00,
2013-12-14 20:49:00,32.9,20.1,30.10,West,260,3.0,3.0,59,0.00,,,0.00,Wunderground v.1.13,2013-12-15 03:49:00,
2013-12-14 20:54:00,32.9,20.1,30.10,West,259,1.0,1.0,59,0.00,,,0.00,Wunderground v.1.13,2013-12-15 03:54:00,
2013-12-14 20:59:00,33.1,20.3,30.10,West,263,0.0,14.0,59,0.00,,,0.00,Wunderground v.1.13,2013-12-15 03:59:00,
2013-12-14 21:04:00,32.9,20.1,30.10,West,270,0.0,14.0,59,0.00,,,0.00,Wunderground v.1.13,2013-12-15 04:04:00,
2013-12-14 21:09:00,32.9,20.1,30.10,West,281,1.0,1.0,59,0.00,,,0.00,Wunderground v.1.13,2013-12-15 04:09:00,
2013-12-14 21:15:00,32.9,20.5,30.10,WSW,249,1.0,14.0,60,0.00,,,0.00,Wunderground v.1.13,2013-12-15 04:15:00,
2013-12-14 21:19:00,33.1,20.3,30.10,WSW,255,1.0,14.0,59,0.00,,,0.00,Wunderground v.1.13,2013-12-15 04:19:00,
2013-12-14 21:24:00,33.5,20.7,30.10,WSW,252,2.0,2.0,59,0.00,,,0.00,Wunderground v.1.13,2013-12-15 04:24:00,
2013-12-14 21:29:00,33.7,20.9,30.10,WSW,249,2.0,2.0,59,0.00,,,0.00,Wunderground v.1.13,2013-12-15 04:29:00,
2013-12-14 21:34:00,33.8,20.6,30.10,WSW,248,0.0,14.0,58,0.00,,,0.00,Wunderground v.1.13,2013-12-15 04:34:00,
2013-12-14 21:39:00,34.0,20.8,30.10,WSW,248,0.0,14.0,58,0.00,,,0.00,Wunderground v.1.13,2013-12-15 04:39:00,
2013-12-14 21:44:00,34.1,20.9,30.10,WSW,248,0.0,14.0,58,0.00,,,0.00,Wunderground v.1.13,2013-12-15 04:44:00,
2013-12-14 21:49:00,34.3,21.0,30.10,WSW,248,0.0,14.0,58,0.00,,,0.00,Wunderground v.1.13,2013-12-15 04:49:00,
2013-12-14 21:54:00,34.4,21.1,30.10,WSW,248,0.0,14.0,58,0.00,,,0.00,Wunderground v.1.13,2013-12-15 04:54:00,
2013-12-14 21:59:00,34.4,21.1,30.10,WSW,248,0.0,14.0,58,0.00,,,0.00,Wunderground v.1.13,2013-12-15 04:59:00,
2013-12-14 22:04:00,34.4,21.5,30.10,WSW,248,0.0,14.0,59,0.00,,,0.00,Wunderground v.1.13,2013-12-15 05:04:00,
2013-12-14 22:09:00,34.3,21.4,30.10,WSW,248,0.0,14.0,59,0.00,,,0.00,Wunderground v.1.13,2013-12-15 05:09:00,
2013-12-14 22:15:00,34.3,21.4,30.10,WSW,248,0.0,14.0,59,0.00,,,0.00,Wunderground v.1.13,2013-12-15 05:15:00,
2013-12-14 22:20:00,34.4,21.5,30.09,WSW,248,0.0,14.0,59,0.00,,,0.00,Wunderground v.1.13,2013-12-15 05:20:00,
2013-12-14 22:25:00,34.6,21.7,30.09,WSW,248,0.0,14.0,59,0.00,,,0.00,Wunderground v.1.13,2013-12-15 05:25:00,
2013-12-14 22:30:00,34.6,21.7,30.09,WSW,248,0.0,14.0,59,0.00,,,0.00,Wunderground v.1.13,2013-12-15 05:30:00,
2013-12-14 22:35:00,34.7,21.8,30.09,WSW,248,0.0,14.0,59,0.00,,,0.00,Wunderground v.1.13,2013-12-15 05:35:00,
2013-12-14 22:40:00,34.9,22.0,30.09,West,270,0.0,14.0,59,0.00,,,0.00,Wunderground v.1.13,2013-12-15 05:40:00,
2013-12-14 22:45:00,35.0,21.7,30.09,West,272,0.0,14.0,58,0.00,,,0.00,Wunderground v.1.13,2013-12-15 05:45:00,
2013-12-14 22:50:00,35.2,21.9,30.09,West,281,0.0,14.0,58,0.00,,,0.00,Wunderground v.1.13,2013-12-15 05:50:00,
2013-12-14 22:55:00,35.3,21.6,30.09,WNW,284,0.0,14.0,57,0.00,,,0.00,Wunderground v.1.13,2013-12-15 05:55:00,
2013-12-14 22:59:00,35.6,21.9,30.09,WNW,285,0.0,14.0,57,0.00,,,0.00,Wunderground v.1.13,2013-12-15 05:59:00,
2013-12-14 23:04:00,36.0,21.8,30.08,West,281,1.0,1.0,56,0.00,,,0.00,Wunderground v.1.13,2013-12-15 06:04:00,
2013-12-14 23:09:00,36.3,21.7,30.08,West,270,1.0,1.0,55,0.00,,,0.00,Wunderground v.1.13,2013-12-15 06:09:00,
2013-12-14 23:14:00,36.5,21.8,30.08,West,270,0.0,14.0,55,0.00,,,0.00,Wunderground v.1.13,2013-12-15 06:14:00,
2013-12-14 23:20:00,35.0,21.3,30.08,West,270,0.0,14.0,57,0.00,,,0.00,Wunderground v.1.13,2013-12-15 06:20:00,
2013-12-14 23:25:00,34.1,20.9,30.08,WSW,252,0.0,14.0,58,0.00,,,0.00,Wunderground v.1.13,2013-12-15 06:25:00,
2013-12-14 23:30:00,33.7,20.9,30.08,SW,232,1.0,14.0,59,0.00,,,0.00,Wunderground v.1.13,2013-12-15 06:30:00,
2013-12-14 23:35:00,33.5,20.7,30.07,SW,236,1.0,1.0,59,0.00,,,0.00,Wunderground v.1.13,2013-12-15 06:35:00,
2013-12-14 23:40:00,33.7,20.9,30.07,WSW,241,0.0,14.0,59,0.00,,,0.00,Wunderground v.1.13,2013-12-15 06:40:00,
2013-12-14 23:45:00,33.8,21.0,30.07,West,262,0.0,14.0,59,0.00,,,0.00,Wunderground v.1.13,2013-12-15 06:45:00,
2013-12-14 23:50:00,34.0,21.2,30.07,West,262,0.0,14.0,59,0.00,,,0.00,Wunderground v.1.13,2013-12-15 06:50:00,
2013-12-14 23:54:00,34.1,20.9,30.07,West,262,0.0,14.0,58,0.00,,,0.00,Wunderground v.1.13,2013-12-15 06:54:00,
2013-12-14 23:59:00,34.1,20.9,30.07,WSW,257,0.0,14.0,58,0.00,,,0.00,Wunderground v.1.13,2013-12-15 06:59:00,